Time;durP1;ratioP1;P1;durP2;ratioP2;P2;SDS_P1;SDS_P2;PMS_P1;PMS_P2;Temp;Humidity;BMP_temperature;BMP_pressure;BME280_temperature;BME280_humidity;BME280_pressure;Samples;Min_cycle;Max_cycle;Signal;HPM_P1;HPM_P2
2023/09/30 00:01:10;;;;;;;4.87;2.13;;;;;;;15.53;100.00;101328.88;5006088;28;20287;-74
2023/09/30 00:03:37;;;;;;;4.43;2.33;;;;;;;15.55;100.00;101328.91;5029100;22;20313;-70
2023/09/30 00:06:04;;;;;;;5.77;2.40;;;;;;;15.59;100.00;101328.97;4987314;28;20237;-70
2023/09/30 00:08:31;;;;;;;3.83;2.50;;;;;;;15.62;100.00;101338.81;4987643;28;20295;-70
2023/09/30 00:10:57;;;;;;;4.70;2.27;;;;;;;15.63;100.00;101346.81;4985510;28;20205;-74
2023/09/30 00:13:23;;;;;;;6.73;2.53;;;;;;;15.65;100.00;101345.06;4982647;28;20291;-73
2023/09/30 00:15:50;;;;;;;5.47;2.20;;;;;;;15.68;100.00;101346.88;4988612;28;20229;-72
2023/09/30 00:18:16;;;;;;;4.60;2.20;;;;;;;15.93;100.00;101355.94;4986994;28;20200;-70
2023/09/30 00:20:43;;;;;;;3.13;2.10;;;;;;;15.93;100.00;101350.59;4986392;28;20207;-70
2023/09/30 00:23:09;;;;;;;9.93;2.60;;;;;;;15.93;100.00;101354.16;4983939;28;20201;-70
2023/09/30 00:25:36;;;;;;;6.23;2.30;;;;;;;15.86;100.00;101349.66;4987525;28;20217;-70
2023/09/30 00:28:02;;;;;;;4.60;2.80;;;;;;;15.93;100.00;101348.81;4983999;28;20205;-73
2023/09/30 00:30:29;;;;;;;8.20;2.83;;;;;;;15.88;100.00;101349.66;4988664;28;20669;-68
2023/09/30 00:32:56;;;;;;;6.63;2.60;;;;;;;15.91;100.00;101368.38;4989013;28;20255;-71
2023/09/30 00:35:22;;;;;;;8.57;3.20;;;;;;;15.98;100.00;101362.19;4988999;28;20221;-72
2023/09/30 00:37:48;;;;;;;6.13;2.80;;;;;;;15.96;100.00;101366.63;4985655;28;20215;-72
2023/09/30 00:40:15;;;;;;;5.17;2.87;;;;;;;15.95;100.00;101368.41;4986911;28;20216;-73
2023/09/30 00:42:41;;;;;;;6.37;2.90;;;;;;;15.95;100.00;101378.22;4988857;28;20209;-73
2023/09/30 00:45:09;;;;;;;9.63;3.53;;;;;;;15.92;100.00;101379.09;4983302;28;20323;-72
2023/09/30 00:47:37;;;;;;;5.73;3.23;;;;;;;15.93;100.00;101378.19;4988230;28;20209;-72
2023/09/30 00:50:07;;;;;;;9.40;3.77;;;;;;;16.01;100.00;101380.94;4984743;28;20344;-73
2023/09/30 00:52:35;;;;;;;8.53;3.50;;;;;;;16.03;100.00;101381.84;5002116;28;20196;-73
2023/09/30 00:55:02;;;;;;;8.03;4.30;;;;;;;16.04;100.00;101377.41;4988007;28;20221;-71
2023/09/30 00:57:30;;;;;;;6.40;3.13;;;;;;;16.02;100.00;101388.09;4987036;28;20209;-73
2023/09/30 00:59:57;;;;;;;9.50;3.60;;;;;;;16.04;100.00;101388.09;4984481;28;20287;-72
2023/09/30 01:02:24;;;;;;;7.07;3.77;;;;;;;16.02;100.00;101389.88;4985495;28;20706;-70
2023/09/30 01:04:51;;;;;;;7.17;3.57;;;;;;;16.03;100.00;101381.84;4986768;28;20312;-73
2023/09/30 01:07:18;;;;;;;7.03;4.00;;;;;;;15.98;100.00;101386.25;4987023;28;20216;-72
2023/09/30 01:09:44;;;;;;;6.23;3.90;;;;;;;15.85;100.00;101384.38;4984244;28;20416;-72
2023/09/30 01:12:11;;;;;;;9.90;3.93;;;;;;;15.84;100.00;101390.59;4982684;28;20207;-72
2023/09/30 01:14:42;;;;;;;7.93;3.97;;;;;;;15.79;100.00;101392.34;4982590;28;20937;-72
2023/09/30 01:17:09;;;;;;;8.20;3.80;;;;;;;15.66;100.00;101370.88;4979945;28;20209;-73
2023/09/30 01:19:35;;;;;;;10.13;3.83;;;;;;;15.72;100.00;101387.84;4984766;28;20689;-72
2023/09/30 01:22:05;;;;;;;6.93;3.80;;;;;;;15.68;100.00;101399.38;4984945;28;20295;-72
2023/09/30 01:24:40;;;;;;;9.73;3.73;;;;;;;15.65;100.00;101398.47;4977987;28;20231;-72
2023/09/30 01:27:07;;;;;;;8.63;4.20;;;;;;;15.62;100.00;101406.47;4986778;28;20242;-72
2023/09/30 01:29:33;;;;;;;7.80;3.90;;;;;;;15.54;100.00;101410.78;4984438;28;20322;-72
2023/09/30 01:32:00;;;;;;;13.17;4.10;;;;;;;15.49;100.00;101408.94;4987948;28;20204;-72
2023/09/30 01:34:27;;;;;;;8.93;3.40;;;;;;;15.44;100.00;101406.22;4984821;28;20294;-72
2023/09/30 01:36:53;;;;;;;7.70;3.87;;;;;;;15.32;100.00;101409.69;4987098;28;20211;-72
2023/09/30 01:39:20;;;;;;;7.33;3.80;;;;;;;15.32;100.00;101401.69;4985408;28;20197;-73
2023/09/30 01:41:46;;;;;;;7.97;3.57;;;;;;;15.21;100.00;101408.69;4988616;28;20268;-71
2023/09/30 01:44:13;;;;;;;8.13;3.70;;;;;;;15.16;100.00;101413.03;4986886;28;20280;-71
2023/09/30 01:46:39;;;;;;;7.73;3.10;;;;;;;15.17;100.00;101405.94;4985979;28;20204;-72
2023/09/30 01:49:06;;;;;;;7.77;3.60;;;;;;;15.14;100.00;101409.47;4986274;28;20204;-70
2023/09/30 01:51:32;;;;;;;6.23;3.20;;;;;;;14.97;100.00;101403.94;4985400;28;20209;-72
2023/09/30 01:53:59;;;;;;;6.00;2.90;;;;;;;14.83;100.00;101389.56;4980272;28;20228;-73
2023/09/30 01:56:25;;;;;;;7.87;3.23;;;;;;;14.75;100.00;101383.22;4986143;28;20201;-73
2023/09/30 01:58:52;;;;;;;7.17;3.43;;;;;;;14.65;100.00;101378.66;4986727;28;20196;-72
2023/09/30 02:01:18;;;;;;;9.87;4.20;;;;;;;14.59;100.00;101395.47;4986907;28;20208;-72
2023/09/30 02:03:45;;;;;;;6.67;3.10;;;;;;;14.53;100.00;101399.84;4984962;28;20205;-71
2023/09/30 02:06:11;;;;;;;7.73;3.60;;;;;;;14.51;100.00;101407.81;4985903;28;20205;-71
2023/09/30 02:08:37;;;;;;;7.33;3.10;;;;;;;14.42;100.00;101405.00;4988327;28;20200;-73
2023/09/30 02:11:05;;;;;;;8.47;3.80;;;;;;;14.37;100.00;101396.91;4988161;28;20209;-73
2023/09/30 02:13:35;;;;;;;7.97;3.63;;;;;;;14.51;100.00;101412.25;4985324;28;20665;-72
2023/09/30 02:16:01;;;;;;;8.30;3.37;;;;;;;14.66;100.00;101417.78;4986377;28;20316;-71
2023/09/30 02:18:28;;;;;;;12.63;3.90;;;;;;;14.63;100.00;101420.41;4985694;28;20267;-72
2023/09/30 02:20:54;;;;;;;9.67;3.80;;;;;;;14.59;100.00;101418.56;4987917;28;20571;-72
2023/09/30 02:23:22;;;;;;;9.87;3.20;;;;;;;14.55;100.00;101412.31;4986005;28;20628;-72
2023/09/30 02:25:49;;;;;;;8.83;3.30;;;;;;;14.58;100.00;101411.44;4999851;28;20244;-72
2023/09/30 02:28:15;;;;;;;6.83;3.10;;;;;;;14.58;100.00;101411.44;4985563;28;20263;-72
2023/09/30 02:30:41;;;;;;;12.00;3.40;;;;;;;14.43;100.00;101408.59;4987023;28;20587;-72
2023/09/30 02:33:11;;;;;;;11.07;3.77;;;;;;;14.45;100.00;101413.06;4984951;28;20208;-73
2023/09/30 02:35:38;;;;;;;8.00;3.40;;;;;;;14.44;100.00;101423.72;4985399;28;20643;-72
2023/09/30 02:38:06;;;;;;;8.60;3.57;;;;;;;14.47;100.00;101426.41;4986232;28;20255;-73
2023/09/30 02:40:35;;;;;;;6.33;3.40;;;;;;;14.33;100.00;101426.16;4987126;28;20212;-72
2023/09/30 02:43:01;;;;;;;8.73;3.20;;;;;;;14.24;100.00;101429.59;4986717;28;20207;-73
2023/09/30 02:45:28;;;;;;;7.97;3.10;;;;;;;14.21;100.00;101440.19;4983604;28;20220;-72
2023/09/30 02:47:54;;;;;;;8.67;2.73;;;;;;;14.06;100.00;101443.53;4990391;28;20212;-71
2023/09/30 02:50:21;;;;;;;7.30;3.10;;;;;;;13.95;100.00;101453.09;4988735;28;20673;-72
2023/09/30 02:52:48;;;;;;;6.20;3.00;;;;;;;13.86;100.00;101454.72;4989884;28;20209;-71
2023/09/30 02:55:15;;;;;;;8.87;3.07;;;;;;;13.73;100.00;101451.84;4987991;28;20236;-74
2023/09/30 02:57:42;;;;;;;8.73;3.10;;;;;;;13.64;100.00;101453.44;4988550;28;20805;-71
2023/09/30 03:00:20;;;;;;;10.90;3.13;;;;;;;13.56;100.00;101452.41;4989654;28;20708;-72
2023/09/30 03:02:47;;;;;;;8.60;3.33;;;;;;;13.46;100.00;101448.66;4985870;28;20669;-72
2023/09/30 03:05:13;;;;;;;7.57;2.83;;;;;;;13.32;100.00;101450.19;4986919;28;20225;-72
2023/09/30 03:07:41;;;;;;;6.10;2.87;;;;;;;13.23;100.00;101442.03;4989604;28;20212;-71
2023/09/30 03:10:08;;;;;;;6.67;3.13;;;;;;;13.10;100.00;101438.19;4988546;28;20197;-72
2023/09/30 03:12:35;;;;;;;8.90;2.90;;;;;;;13.02;100.00;101431.81;4988382;28;20587;-71
2023/09/30 03:15:04;;;;;;;7.93;3.07;;;;;;;13.10;100.00;101440.84;4986989;28;20235;-71
2023/09/30 03:17:32;;;;;;;7.67;2.63;;;;;;;13.10;100.00;101451.47;4987821;28;21910;-72
2023/09/30 03:19:58;;;;;;;7.80;3.20;;;;;;;13.01;100.00;101446.88;4988123;28;20205;-71
2023/09/30 03:22:27;;;;;;;8.73;3.30;;;;;;;13.17;100.00;101456.97;4989741;28;20496;-73
2023/09/30 03:24:54;;;;;;;7.50;2.60;;;;;;;13.14;100.00;101463.97;4985923;28;20535;-71
2023/09/30 03:27:21;;;;;;;8.77;2.80;;;;;;;13.18;100.00;101476.50;4986941;28;20205;-71
2023/09/30 03:29:47;;;;;;;14.47;3.00;;;;;;;13.21;100.00;101487.22;4988069;28;20291;-73
2023/09/30 03:32:13;;;;;;;7.37;2.80;;;;;;;13.12;100.00;101471.91;4990626;28;20216;-71
2023/09/30 03:34:44;;;;;;;9.10;3.23;;;;;;;13.00;100.00;101449.50;4986920;28;20222;-72
2023/09/30 03:37:11;;;;;;;6.87;2.60;;;;;;;12.94;100.00;101442.31;4988270;28;20205;-71
2023/09/30 03:39:38;;;;;;;6.53;3.03;;;;;;;12.91;100.00;101455.53;4985467;28;20208;-71
2023/09/30 03:42:04;;;;;;;5.97;3.10;;;;;;;12.91;100.00;101468.84;4988266;28;20768;-71
2023/09/30 03:44:31;;;;;;;13.47;3.20;;;;;;;12.80;100.00;101475.66;4985605;28;20227;-73
2023/09/30 03:46:59;;;;;;;5.27;2.80;;;;;;;12.74;100.00;101476.44;4989435;28;20215;-71
2023/09/30 03:49:28;;;;;;;9.60;3.00;;;;;;;12.69;100.00;101482.50;4988229;28;20216;-71
2023/09/30 03:51:54;;;;;;;7.10;3.10;;;;;;;12.72;100.00;101483.47;4988343;28;20209;-71
2023/09/30 03:54:21;;;;;;;8.50;3.53;;;;;;;12.69;100.00;101479.84;4987084;28;20604;-71
2023/09/30 03:56:47;;;;;;;9.67;3.47;;;;;;;12.64;100.00;101476.19;4984871;28;20197;-73
2023/09/30 03:59:14;;;;;;;5.97;3.20;;;;;;;12.67;100.00;101482.47;4986867;28;20205;-70
2023/09/30 04:01:40;;;;;;;9.20;3.53;;;;;;;12.61;100.00;101470.81;4986833;28;20197;-71
2023/09/30 04:04:09;;;;;;;10.17;4.60;;;;;;;12.67;100.00;101481.56;4988608;28;20747;-71
2023/09/30 04:06:38;;;;;;;5.70;3.47;;;;;;;12.68;100.00;101484.28;4984599;28;20279;-73
2023/09/30 04:09:11;;;;;;;12.07;3.70;;;;;;;12.54;100.00;101472.44;4988211;28;20204;-72
2023/09/30 04:11:37;;;;;;;7.27;3.40;;;;;;;12.36;100.00;101472.91;4985946;28;20288;-72
2023/09/30 04:14:06;;;;;;;7.27;3.27;;;;;;;12.23;100.00;101468.16;4988417;28;20224;-72
2023/09/30 04:16:32;;;;;;;10.37;3.83;;;;;;;12.28;100.00;101479.78;4983770;28;20235;-74
2023/09/30 04:19:00;;;;;;;7.07;3.63;;;;;;;12.32;100.00;101470.13;4984499;28;20208;-72
2023/09/30 04:21:28;;;;;;;7.57;3.30;;;;;;;12.38;100.00;101479.16;4986778;28;20737;-75
2023/09/30 04:23:54;;;;;;;9.63;3.60;;;;;;;12.55;100.00;101480.44;4985872;28;20251;-74
2023/09/30 04:26:22;;;;;;;9.00;3.73;;;;;;;12.73;100.00;101487.94;4987045;28;20201;-73
2023/09/30 04:28:49;;;;;;;8.23;3.80;;;;;;;12.79;100.00;101485.41;4984856;28;20292;-69
2023/09/30 04:31:15;;;;;;;9.23;4.00;;;;;;;12.94;100.00;101490.16;4981607;28;20209;-71
2023/09/30 04:33:42;;;;;;;10.73;5.00;;;;;;;12.98;100.00;101475.16;4989566;28;20220;-72
2023/09/30 04:36:09;;;;;;;9.40;4.37;;;;;;;13.12;100.00;101482.56;4987532;28;20224;-71
2023/09/30 04:38:37;;;;;;;9.50;4.27;;;;;;;13.17;100.00;101466.72;4987832;28;20805;-70
2023/09/30 04:41:07;;;;;;;8.03;4.17;;;;;;;13.28;100.00;101474.94;4984405;28;20747;-68
2023/09/30 04:43:34;;;;;;;7.43;4.30;;;;;;;13.26;100.00;101479.34;4989029;28;20208;-71
2023/09/30 04:46:01;;;;;;;8.83;4.30;;;;;;;13.31;100.00;101478.56;4988600;28;20211;-71
2023/09/30 04:48:28;;;;;;;10.50;4.10;;;;;;;13.30;100.00;101476.75;4987480;28;20626;-71
2023/09/30 04:50:55;;;;;;;13.17;4.80;;;;;;;13.27;100.00;101481.13;4985118;28;20208;-71
2023/09/30 04:53:23;;;;;;;12.80;4.40;;;;;;;13.22;100.00;101482.81;4986805;28;20212;-71
2023/09/30 04:55:50;;;;;;;12.53;4.87;;;;;;;13.05;100.00;101483.31;4986344;28;20863;-71
2023/09/30 04:58:16;;;;;;;9.07;4.17;;;;;;;13.07;100.00;101493.97;4989036;28;20204;-72
2023/09/30 05:00:43;;;;;;;11.60;4.67;;;;;;;12.92;100.00;101488.34;4989782;28;20255;-72
2023/09/30 05:03:09;;;;;;;10.27;4.53;;;;;;;12.76;100.00;101489.75;4988960;28;20213;-70
2023/09/30 05:05:36;;;;;;;13.93;5.20;;;;;;;12.62;100.00;101492.09;4986543;28;20271;-71
2023/09/30 05:08:04;;;;;;;11.27;4.03;;;;;;;12.47;100.00;101495.31;4986082;28;20680;-72
2023/09/30 05:10:30;;;;;;;11.03;4.90;;;;;;;12.28;100.00;101492.19;4988065;28;20284;-72
2023/09/30 05:12:57;;;;;;;12.93;4.63;;;;;;;12.09;100.00;101496.16;4989325;28;20209;-72
2023/09/30 05:15:23;;;;;;;14.13;5.07;;;;;;;12.00;100.00;101493.25;4985453;28;20223;-71
2023/09/30 05:17:50;;;;;;;13.37;5.27;;;;;;;12.00;100.00;101506.53;4986957;28;20327;-72
2023/09/30 05:20:19;;;;;;;12.27;5.57;;;;;;;11.93;100.00;101494.84;4987663;28;20211;-71
2023/09/30 05:22:46;;;;;;;10.20;5.50;;;;;;;11.97;100.00;101499.38;4982796;28;20212;-71
2023/09/30 05:25:17;;;;;;;11.07;5.13;;;;;;;11.96;100.00;101496.69;4987199;28;20216;-72
2023/09/30 05:27:45;;;;;;;13.03;5.87;;;;;;;11.92;100.00;101493.97;4988177;28;20213;-72
2023/09/30 05:30:14;;;;;;;12.10;5.50;;;;;;;11.88;100.00;101485.88;4986715;28;20208;-72
2023/09/30 05:32:41;;;;;;;13.27;5.73;;;;;;;11.90;100.00;101497.44;4982160;28;20300;-70
2023/09/30 05:35:12;;;;;;;13.00;6.00;;;;;;;11.89;100.00;101488.56;4986176;28;20883;-70
2023/09/30 05:37:40;;;;;;;10.00;5.27;;;;;;;12.02;100.00;101494.22;4987020;28;20204;-71
2023/09/30 05:40:16;;;;;;;12.73;5.30;;;;;;;11.99;100.00;101502.06;4987262;28;20204;-72
2023/09/30 05:42:44;;;;;;;12.33;5.63;;;;;;;11.97;100.00;101496.72;4987601;28;20200;-71
2023/09/30 05:45:15;;;;;;;9.07;5.27;;;;;;;11.87;100.00;101506.22;4987514;28;20228;-71
2023/09/30 05:47:42;;;;;;;12.87;5.83;;;;;;;11.81;100.00;101503.41;4986435;28;20203;-71
2023/09/30 05:50:09;;;;;;;12.27;5.37;;;;;;;11.76;100.00;101518.28;4987336;28;20292;-73
2023/09/30 05:52:37;;;;;;;10.27;5.30;;;;;;;11.64;100.00;101523.28;4987887;28;20217;-72
2023/09/30 05:55:04;;;;;;;11.90;5.40;;;;;;;11.57;100.00;101516.88;4987337;28;20278;-72
2023/09/30 05:57:31;;;;;;;11.57;5.20;;;;;;;11.52;100.00;101514.94;4971327;28;20630;-75
2023/09/30 05:59:57;;;;;;;17.23;5.60;;;;;;;11.45;100.00;101515.63;4985299;28;20205;-71
2023/09/30 06:02:24;;;;;;;12.67;5.63;;;;;;;11.42;100.00;101513.81;4986715;28;20206;-73
2023/09/30 06:04:53;;;;;;;13.33;5.50;;;;;;;11.39;100.00;101519.03;5011328;22;20219;-74
2023/09/30 06:07:20;;;;;;;11.70;5.03;;;;;;;11.37;100.00;101533.09;5003413;28;20264;-74
2023/09/30 06:09:49;;;;;;;12.83;5.87;;;;;;;11.38;100.00;101533.13;5006531;28;20205;-73
2023/09/30 06:12:16;;;;;;;13.10;5.63;;;;;;;11.38;100.00;101529.59;5004875;28;20210;-75
2023/09/30 06:14:45;;;;;;;12.73;5.40;;;;;;;11.47;100.00;101536.03;4997762;28;20230;-72
2023/09/30 06:17:11;;;;;;;11.27;5.10;;;;;;;11.54;100.00;101543.31;4984291;28;20220;-72
2023/09/30 06:19:37;;;;;;;11.23;5.83;;;;;;;11.65;100.00;101548.03;4988025;28;20206;-73
2023/09/30 06:22:04;;;;;;;14.60;5.33;;;;;;;11.70;100.00;101549.06;4986808;28;20295;-73
2023/09/30 06:24:31;;;;;;;16.07;6.00;;;;;;;11.78;100.00;101543.13;5002058;28;20293;-74
2023/09/30 06:26:57;;;;;;;10.93;5.57;;;;;;;11.89;100.00;101544.31;5006479;28;20195;-73
2023/09/30 06:29:23;;;;;;;15.97;6.10;;;;;;;12.05;100.00;101542.06;5005962;28;20196;-73
2023/09/30 06:31:50;;;;;;;12.90;6.17;;;;;;;12.08;100.00;101544.81;5003084;28;20554;-72
2023/09/30 06:34:16;;;;;;;14.40;5.93;;;;;;;12.12;100.00;101552.00;5005072;28;20249;-72
2023/09/30 06:36:43;;;;;;;14.03;5.80;;;;;;;12.19;100.00;101549.53;5004273;28;20592;-71
2023/09/30 06:39:10;;;;;;;12.93;6.30;;;;;;;12.24;100.00;101541.66;5006283;28;20215;-71
2023/09/30 06:41:36;;;;;;;15.07;5.70;;;;;;;12.26;100.00;101534.63;5004171;28;20670;-71
2023/09/30 06:44:03;;;;;;;14.57;5.77;;;;;;;12.31;100.00;101529.44;5005278;28;20237;-71
2023/09/30 06:46:29;;;;;;;14.00;6.60;;;;;;;12.36;100.00;101534.00;5006017;28;20210;-71
2023/09/30 06:48:56;;;;;;;12.77;5.93;;;;;;;12.40;100.00;101546.50;5003717;28;20218;-73
2023/09/30 06:51:23;;;;;;;11.90;5.70;;;;;;;12.39;100.00;101546.44;5005108;28;20231;-72
2023/09/30 06:53:50;;;;;;;12.20;6.00;;;;;;;12.35;100.00;101556.09;5004727;28;20200;-72
2023/09/30 06:56:16;;;;;;;10.60;5.87;;;;;;;12.32;100.00;101565.75;5004718;28;20603;-71
2023/09/30 06:58:43;;;;;;;14.33;5.90;;;;;;;12.42;100.00;101563.41;5000781;28;22015;-72
2023/09/30 07:01:15;;;;;;;15.03;6.10;;;;;;;12.50;100.00;101577.75;4986919;28;20293;-72
2023/09/30 07:03:42;;;;;;;13.83;5.63;;;;;;;12.60;100.00;101580.63;5004213;28;20303;-70
2023/09/30 07:06:09;;;;;;;11.63;5.30;;;;;;;12.66;100.00;101571.03;5004247;28;20722;-72
2023/09/30 07:08:35;;;;;;;11.77;6.03;;;;;;;12.76;100.00;101577.47;5004759;28;20287;-72
2023/09/30 07:11:02;;;;;;;11.93;5.90;;;;;;;12.82;100.00;101572.31;5006194;28;20634;-71
2023/09/30 07:13:28;;;;;;;9.90;5.53;;;;;;;12.88;100.00;101556.50;5003813;28;20307;-73
2023/09/30 07:15:54;;;;;;;12.83;5.90;;;;;;;12.96;100.00;101560.22;5006576;28;20234;-72
2023/09/30 07:18:21;;;;;;;14.43;5.80;;;;;;;13.05;100.00;101555.09;5005979;28;20258;-70
2023/09/30 07:20:48;;;;;;;9.30;5.13;;;;;;;13.23;100.00;101559.09;5008111;28;20576;-70
2023/09/30 07:23:14;;;;;;;8.70;4.93;;;;;;;13.40;100.00;101568.31;5005968;28;20205;-70
2023/09/30 07:25:47;;;;;;;13.80;6.00;;;;;;;13.57;100.00;101576.63;4988053;28;20252;-71
2023/09/30 07:28:13;;;;;;;12.80;5.87;;;;;;;13.71;100.00;101581.38;4990739;28;20295;-70
2023/09/30 07:30:40;;;;;;;17.73;5.53;;;;;;;13.82;100.00;101573.59;5007886;28;20196;-71
2023/09/30 07:33:07;;;;;;;16.23;5.57;;;;;;;13.90;100.00;101585.28;4989701;28;20666;-71
2023/09/30 07:35:34;;;;;;;13.20;5.77;;;;;;;13.97;100.00;101578.28;5007917;28;20306;-70
2023/09/30 07:38:01;;;;;;;9.77;4.90;;;;;;;14.08;100.00;101582.06;4992733;28;20204;-69
2023/09/30 07:40:27;;;;;;;9.00;4.47;;;;;;;14.15;100.00;101567.09;5007141;28;20660;-70
2023/09/30 07:42:56;;;;;;;11.90;5.00;;;;;;;14.28;100.00;101563.75;5010991;28;20287;-71
2023/09/30 07:45:22;;;;;;;12.20;5.90;;;;;;;14.22;100.00;101567.22;5008460;28;20220;-70
2023/09/30 07:47:50;;;;;;;12.07;5.20;;;;;;;14.25;100.00;101559.28;5008553;28;20287;-71
2023/09/30 07:50:17;;;;;;;13.80;5.50;;;;;;;14.40;100.00;101559.53;5011261;28;20200;-70
2023/09/30 07:52:44;;;;;;;10.57;5.40;;;;;;;14.48;100.00;101566.81;5009658;28;20196;-70
2023/09/30 07:55:10;;;;;;;10.87;4.60;;;;;;;14.62;100.00;101565.25;5006922;28;20307;-69
2023/09/30 07:57:42;;;;;;;14.10;5.00;;;;;;;14.67;100.00;101575.09;5004581;28;20775;-70
2023/09/30 08:00:14;;;;;;;18.57;3.70;;;;;;;14.82;100.00;101570.91;5010999;28;20204;-70
2023/09/30 08:02:42;;;;;;;9.17;3.43;;;;;;;14.92;100.00;101563.06;5007524;28;20200;-71
2023/09/30 08:05:09;;;;;;;8.87;3.43;;;;;;;14.97;100.00;101560.44;5010314;28;20231;-70
2023/09/30 08:07:35;;;;;;;9.20;3.60;;;;;;;14.97;100.00;101556.00;4990341;28;20203;-70
2023/09/30 08:10:06;;;;;;;11.40;3.87;;;;;;;15.03;100.00;101555.19;4993054;28;20291;-70
2023/09/30 08:12:33;;;;;;;14.87;4.03;;;;;;;15.02;100.00;101569.41;5007621;28;20296;-70
2023/09/30 08:15:00;;;;;;;10.20;3.60;;;;;;;15.03;100.00;101574.75;5007313;28;20226;-70
2023/09/30 08:17:26;;;;;;;12.20;3.87;;;;;;;15.11;100.00;101584.66;5007161;28;20255;-70
2023/09/30 08:19:53;;;;;;;10.00;3.50;;;;;;;15.19;100.00;101578.53;5010393;28;20291;-71
2023/09/30 08:22:19;;;;;;;10.67;3.20;;;;;;;15.17;100.00;101582.06;5007338;28;20212;-69
2023/09/30 08:24:46;;;;;;;8.93;3.50;;;;;;;15.24;100.00;101586.63;5000696;28;20231;-71
2023/09/30 08:27:12;;;;;;;8.10;3.33;;;;;;;15.24;100.00;101573.28;5008901;28;20196;-70
2023/09/30 08:29:38;;;;;;;8.30;3.47;;;;;;;15.32;100.00;101587.63;5006215;28;20343;-70
2023/09/30 08:32:05;;;;;;;7.97;3.50;;;;;;;15.27;100.00;101587.56;5006176;28;20200;-70
2023/09/30 08:34:31;;;;;;;9.57;3.80;;;;;;;15.25;100.00;101591.09;5008661;28;20230;-70
2023/09/30 08:36:58;;;;;;;8.97;3.23;;;;;;;15.45;100.00;101610.91;5008663;28;20227;-70
2023/09/30 08:39:25;;;;;;;7.87;3.67;;;;;;;15.61;100.00;101596.94;5007725;28;20255;-70
2023/09/30 08:41:52;;;;;;;10.73;3.67;;;;;;;15.72;100.00;101593.50;5002595;28;20570;-70
2023/09/30 08:44:19;;;;;;;16.40;3.30;;;;;;;15.75;100.00;101602.44;5009000;28;20224;-69
2023/09/30 08:46:47;;;;;;;13.60;3.10;;;;;;;15.78;100.00;101612.25;5005724;28;20193;-70
2023/09/30 08:49:15;;;;;;;8.33;3.10;;;;;;;15.83;100.00;101600.75;5006430;28;20222;-71
2023/09/30 08:51:42;;;;;;;9.70;3.20;;;;;;;15.91;100.00;101619.53;5007078;28;20964;-70
2023/09/30 08:54:09;;;;;;;8.57;3.00;;;;;;;16.03;100.00;101606.31;4992778;28;20735;-70
2023/09/30 08:56:36;;;;;;;10.33;2.70;;;;;;;16.15;100.00;101605.53;5008368;28;20311;-68
2023/09/30 08:59:03;;;;;;;8.33;2.93;;;;;;;16.11;100.00;101603.72;5004602;28;20208;-71
2023/09/30 09:01:31;;;;;;;9.83;2.57;;;;;;;16.15;100.00;101603.75;5007828;28;20812;-70
2023/09/30 09:03:58;;;;;;;7.47;3.13;;;;;;;16.32;100.00;101598.56;5007755;28;20680;-70
2023/09/30 09:06:26;;;;;;;8.60;3.47;;;;;;;16.39;100.00;101605.75;5005949;28;20207;-71
2023/09/30 09:08:53;;;;;;;8.80;3.20;;;;;;;16.53;100.00;101614.81;5008819;28;20219;-71
2023/09/30 09:11:19;;;;;;;11.90;3.27;;;;;;;16.58;100.00;101612.19;5006919;28;20200;-70
2023/09/30 09:13:55;;;;;;;10.13;3.07;;;;;;;16.81;100.00;101609.69;5005457;28;20212;-69
2023/09/30 09:16:23;;;;;;;6.97;2.37;;;;;;;17.04;100.00;101610.78;4990669;28;20219;-69
2023/09/30 09:18:50;;;;;;;4.60;2.63;;;;;;;17.13;100.00;101608.16;5007496;28;20196;-70
2023/09/30 09:21:20;;;;;;;8.73;2.87;;;;;;;17.25;100.00;101607.34;5009127;28;20200;-71
2023/09/30 09:23:48;;;;;;;8.77;2.70;;;;;;;17.33;100.00;101612.72;5003271;28;20679;-72
2023/09/30 09:26:15;;;;;;;6.63;2.67;;;;;;;17.47;100.00;101609.22;5007393;28;20370;-71
2023/09/30 09:28:44;;;;;;;7.00;2.93;;;;;;;17.67;100.00;101613.81;4991289;28;20208;-72
2023/09/30 09:31:23;;;;;;;5.10;2.13;;;;;;;17.77;95.89;101604.94;5005659;28;20200;-70
2023/09/30 09:33:50;;;;;;;7.20;2.47;;;;;;;17.85;97.05;101616.56;5008045;28;20310;-70
2023/09/30 09:36:17;;;;;;;9.50;2.93;;;;;;;17.94;92.86;101611.22;5008775;28;20696;-71
2023/09/30 09:38:45;;;;;;;5.27;2.60;;;;;;;18.04;92.46;101613.06;5006492;28;20208;-70
2023/09/30 09:41:11;;;;;;;6.88;2.60;;;;;;;18.25;94.00;101616.66;5008161;28;20640;-70
2023/09/30 09:43:40;;;;;;;12.13;2.80;;;;;;;18.47;93.74;101602.38;5009522;28;20204;-71
2023/09/30 09:46:10;;;;;;;8.45;2.97;;;;;;;18.60;92.36;101604.16;5009046;28;20220;-70
2023/09/30 09:48:37;;;;;;;8.38;2.72;;;;;;;18.66;83.26;101606.00;5011590;28;20223;-70
2023/09/30 09:51:07;;;;;;;5.10;2.25;;;;;;;18.76;86.17;101605.97;5011536;28;20730;-70
2023/09/30 09:53:39;;;;;;;9.65;2.38;;;;;;;18.85;85.93;101599.72;4994191;28;20234;-70
2023/09/30 09:56:09;;;;;;;7.45;2.88;;;;;;;18.79;84.92;101602.38;5002694;28;20235;-72
2023/09/30 09:58:38;;;;;;;6.15;2.80;;;;;;;19.03;83.93;101593.41;5006743;28;20215;-71
2023/09/30 10:01:06;;;;;;;5.57;2.58;;;;;;;19.19;83.32;101592.47;5006777;28;20219;-70
2023/09/30 10:03:32;;;;;;;5.72;2.72;;;;;;;19.43;80.51;101572.72;5005926;28;20228;-70
2023/09/30 10:06:00;;;;;;;7.03;3.13;;;;;;;19.62;78.69;101562.81;5002650;28;20236;-69
2023/09/30 10:08:44;;;;;;;7.82;3.38;;;;;;;19.80;73.52;101567.19;5007723;28;20668;-70
2023/09/30 10:11:18;;;;;;;7.85;2.90;;;;;;;19.77;74.31;101564.53;4996288;28;20208;-70
2023/09/30 10:14:02;;;;;;;5.57;2.47;;;;;;;19.75;72.43;101560.94;4999919;28;20212;-70
2023/09/30 10:16:34;;;;;;;6.72;2.50;;;;;;;20.12;73.81;101570.59;5006131;28;20223;-71
2023/09/30 10:19:09;;;;;;;6.40;2.72;;;;;;;20.39;71.46;101563.19;5002682;28;20211;-70
2023/09/30 10:21:36;;;;;;;6.40;3.05;;;;;;;20.50;70.87;101550.59;4987311;28;20701;-70
2023/09/30 10:24:24;;;;;;;5.28;2.50;;;;;;;20.71;70.31;101557.56;5004742;28;20298;-70
2023/09/30 10:27:22;;;;;;;8.25;2.80;;;;;;;20.98;67.96;101557.28;5002033;28;20207;-70
2023/09/30 10:30:13;;;;;;;6.88;2.55;;;;;;;20.89;63.09;101550.22;4999654;28;20294;-72
2023/09/30 10:32:56;;;;;;;5.53;2.63;;;;;;;20.53;64.83;101555.94;4999820;28;20664;-70
2023/09/30 10:35:32;;;;;;;5.03;2.72;;;;;;;20.67;69.93;101561.19;4997376;28;20291;-70
2023/09/30 10:38:27;;;;;;;5.57;3.20;;;;;;;20.74;65.78;101558.41;4996701;28;20889;-71
2023/09/30 10:40:57;;;;;;;5.65;2.38;;;;;;;20.74;63.36;101550.34;5001912;28;20668;-70
2023/09/30 10:43:38;;;;;;;5.40;2.83;;;;;;;20.95;63.31;101544.75;5000586;28;20732;-69
2023/09/30 10:46:26;;;;;;;5.95;2.92;;;;;;;20.89;61.73;101558.28;5001866;28;20219;-70
2023/09/30 10:48:53;;;;;;;8.65;4.82;;;;;;;20.75;61.42;101565.59;4994306;28;20279;-70
2023/09/30 10:51:22;;;;;;;5.10;2.83;;;;;;;21.11;63.53;101561.63;4995350;28;20209;-70
2023/09/30 10:53:51;;;;;;;6.70;3.30;;;;;;;21.18;61.60;101555.25;5000235;28;20629;-70
2023/09/30 10:56:19;;;;;;;5.57;2.63;;;;;;;21.06;60.41;101560.78;5000852;28;20656;-70
2023/09/30 10:58:46;;;;;;;6.95;2.97;;;;;;;21.07;63.26;101551.78;4996784;28;20208;-69
2023/09/30 11:01:16;;;;;;;5.78;2.97;;;;;;;21.07;62.20;101554.50;5003832;28;20586;-72
2023/09/30 11:03:45;;;;;;;6.03;3.00;;;;;;;21.24;61.81;101557.03;5000528;28;20202;-71
2023/09/30 11:06:17;;;;;;;5.15;2.53;;;;;;;21.45;59.01;101558.56;4982613;28;20589;-71
2023/09/30 11:08:56;;;;;;;5.63;2.42;;;;;;;21.68;58.66;101553.78;5008400;28;20356;-71
2023/09/30 11:11:37;;;;;;;5.80;2.70;;;;;;;21.89;57.81;101555.25;5008585;28;20204;-70
2023/09/30 11:14:19;;;;;;;5.50;2.67;;;;;;;21.85;56.02;101557.13;4987475;28;20205;-70
2023/09/30 11:16:47;;;;;;;5.57;2.38;;;;;;;21.79;54.81;101561.72;4998267;28;20220;-70
2023/09/30 11:19:15;;;;;;;6.65;3.60;;;;;;;21.73;53.63;101568.09;4995581;28;20240;-71
2023/09/30 11:21:45;;;;;;;6.55;4.00;;;;;;;21.62;55.95;101561.94;4998078;28;20661;-70